首页
METAR-TAF:

METAR-TAF

机场 :

巴爾的摩, 马里兰州, 美国

纬度: 39-20N, 经度: 076-25W, 海拔: 7米

当前天气观测

该预报发布于27分钟前的08:15 UTC
风速5节,风向西北
温度 -1°C
湿度 69%
气压 1038 hPa
能見度: 16.1公里
天空无云

METAR: KMTN 120815Z AUTO 32005KT 10SM CLR M01/M06 A3066 RMK AO2

时间: 03:42 (08:42 UTC)

预报

该预报发布于2小时和56分钟前的05:46 UTC
预报有效从12日的 06点(UTC)到 13日的 06点(UTC)
风速7节,风向西北
能見度: 10公里
少量云层高于25000英尺
从 12日的 0800点(UTC)
风速6节,风向北转西北
能見度: 10公里
少量云层高于25000英尺
从 12日的 1100点(UTC)
风速5节,风向多变
能見度: 10公里
少量云层高于25000英尺
从 13日的 0500点(UTC)
风速3节,风向多变
能見度: 10公里
多云层高于10000英尺

TAF: KMTN 120546Z 1206/1306 31007KT P6SM FEW250 FM120800 33006KT P6SM FEW250 FM121100 VRB05KT P6SM FEW250 FM130500 VRB03KT P6SM BKN100 AMD NOT SKED

超过4000个机场的气象观测和天气预报(METAR&TAF报告)。

可查询的气象台以黄色和红色小点在地图上表示。

将鼠标移到小点上方,可查看气象台名称。

然后点击查看天气观测和预报。

如需切换地图:点击带黑十字的绿色按钮放大地图;点击带横线的绿色按钮缩小地图;或者点击绿色箭头查看邻近地区的地图。


METAR-TAF: